createdAt,value
2023-12-28T00:07:11.480Z,6.10
2023-12-28T00:17:17.334Z,6.50
2023-12-28T00:27:19.350Z,8.32
2023-12-28T00:37:22.738Z,7.05
2023-12-28T00:47:24.749Z,8.45
2023-12-28T00:57:28.165Z,7.57
2023-12-28T01:07:30.148Z,5.78
2023-12-28T01:17:33.605Z,8.90
2023-12-28T01:27:35.605Z,7.40
2023-12-28T01:37:38.988Z,7.38
2023-12-28T01:47:41.698Z,8.30
2023-12-28T01:57:45.972Z,11.63
2023-12-28T02:07:47.971Z,8.93
2023-12-28T02:17:59.183Z,7.85
2023-12-28T02:28:03.445Z,10.13
2023-12-28T02:38:08.394Z,10.52
2023-12-28T02:48:11.982Z,10.90
2023-12-28T02:58:14.003Z,7.65
2023-12-28T03:08:17.381Z,11.68
2023-12-28T03:18:19.511Z,8.02
2023-12-28T03:28:23.011Z,8.65
2023-12-28T03:38:25.093Z,7.97
2023-12-28T03:48:28.574Z,8.48
2023-12-28T03:58:30.751Z,7.25
2023-12-28T04:08:34.176Z,10.60
2023-12-28T04:18:36.287Z,10.07
2023-12-28T04:28:40.602Z,11.73
2023-12-28T04:38:42.553Z,8.32
2023-12-28T04:48:48.129Z,8.82
2023-12-28T04:58:50.240Z,6.82
2023-12-28T05:08:53.574Z,7.68
2023-12-28T05:18:55.666Z,8.40
2023-12-28T05:29:01.832Z,10.20
2023-12-28T05:39:03.872Z,7.75
2023-12-28T05:49:07.318Z,8.80
2023-12-28T05:59:09.360Z,8.95
2023-12-28T06:09:12.713Z,9.57
2023-12-28T06:19:15.010Z,8.90
2023-12-28T06:29:18.384Z,6.53
2023-12-28T06:39:20.410Z,6.35
2023-12-28T06:49:23.847Z,8.50
2023-12-28T06:59:25.860Z,10.23
2023-12-28T07:09:29.225Z,11.43
2023-12-28T07:19:31.366Z,9.23
2023-12-28T07:29:34.833Z,10.73
2023-12-28T07:39:36.864Z,13.23
2023-12-28T07:49:40.449Z,8.45
2023-12-28T07:59:45.498Z,8.90
2023-12-28T08:09:48.976Z,9.02
2023-12-28T08:19:51.201Z,8.63
2023-12-28T08:29:54.648Z,7.95
2023-12-28T08:39:56.697Z,10.10
2023-12-28T08:50:00.355Z,9.88
2023-12-28T09:00:02.601Z,10.75
2023-12-28T09:10:06.639Z,8.57
2023-12-28T09:20:09.548Z,10.30
2023-12-28T09:30:13.651Z,9.10
2023-12-28T09:40:15.944Z,8.35
2023-12-28T09:50:19.850Z,7.93
2023-12-28T10:00:21.926Z,10.70
2023-12-28T10:10:25.381Z,7.13
2023-12-28T10:20:28.049Z,10.05
2023-12-28T10:30:32.145Z,8.73
2023-12-28T10:40:34.635Z,8.75
2023-12-28T10:50:40.551Z,8.43
2023-12-28T11:00:48.563Z,8.65
2023-12-28T11:10:52.819Z,7.72
2023-12-28T11:20:55.307Z,6.95
2023-12-28T11:30:59.278Z,6.97
2023-12-28T11:41:05.375Z,5.97
2023-12-28T11:51:08.726Z,7.63
2023-12-28T12:01:10.810Z,7.30
2023-12-28T12:11:14.343Z,7.07
2023-12-28T12:21:18.693Z,7.28
2023-12-28T12:31:22.603Z,6.68
2023-12-28T12:41:24.702Z,7.00
2023-12-28T12:51:28.411Z,7.70
2023-12-28T13:01:30.648Z,6.10
2023-12-28T13:11:34.502Z,5.35
2023-12-28T13:21:37.724Z,5.20
2023-12-28T13:31:41.471Z,5.95
2023-12-28T13:41:45.361Z,6.97
2023-12-28T13:51:51.552Z,5.53
2023-12-28T14:01:53.811Z,6.93
2023-12-28T14:11:57.317Z,5.82
2023-12-28T14:21:59.883Z,6.22
2023-12-28T14:32:10.249Z,5.65
2023-12-28T14:42:12.283Z,8.55
2023-12-28T14:52:15.772Z,5.97
2023-12-28T15:02:18.033Z,5.90
2023-12-28T15:12:22.166Z,6.88
2023-12-28T15:22:24.814Z,6.68
2023-12-28T15:32:31.699Z,4.70
2023-12-28T15:42:33.764Z,5.80
2023-12-28T15:52:37.483Z,8.13
2023-12-28T16:02:39.527Z,4.50
2023-12-28T16:12:43.082Z,6.68
2023-12-28T16:22:45.637Z,6.35
2023-12-28T16:32:48.987Z,7.82
2023-12-28T16:42:51.053Z,7.25
2023-12-28T16:52:54.926Z,5.57
2023-12-28T17:02:57.259Z,7.15
2023-12-28T17:13:01.568Z,5.35
2023-12-28T17:23:09.885Z,5.45
2023-12-28T17:33:14.275Z,7.30
2023-12-28T17:43:19.884Z,5.90
2023-12-28T17:53:24.089Z,7.10
2023-12-28T18:03:26.353Z,5.28
2023-12-28T18:13:29.864Z,5.63
2023-12-28T18:23:32.309Z,6.50
2023-12-28T18:33:35.866Z,5.97
2023-12-28T18:43:37.991Z,6.53
2023-12-28T18:53:41.326Z,4.00
2023-12-28T19:03:47.331Z,5.53
2023-12-28T19:13:51.680Z,3.80
2023-12-28T19:23:53.677Z,4.68
2023-12-28T19:33:57.294Z,6.30
2023-12-28T19:43:59.392Z,4.93
2023-12-28T19:54:02.730Z,5.22
2023-12-28T20:04:05.016Z,3.97
2023-12-28T20:14:08.671Z,3.20
2023-12-28T20:24:10.748Z,4.72
2023-12-28T20:34:14.196Z,7.38
2023-12-28T20:44:17.664Z,6.50
2023-12-28T20:54:22.709Z,6.85
2023-12-28T21:04:24.921Z,4.75
2023-12-28T21:14:28.448Z,6.90
2023-12-28T21:24:30.519Z,5.20
2023-12-28T21:34:33.942Z,5.07
2023-12-28T21:44:36.313Z,5.47
2023-12-28T21:54:39.859Z,5.43
2023-12-28T22:04:42.027Z,5.93
2023-12-28T22:14:45.474Z,7.20
2023-12-28T22:24:47.478Z,6.22
2023-12-28T22:34:50.926Z,5.57
2023-12-28T22:44:52.922Z,5.05
2023-12-28T22:54:57.100Z,4.85
2023-12-28T23:04:59.092Z,4.65
2023-12-28T23:15:02.525Z,4.30
2023-12-28T23:25:05.122Z,6.50
2023-12-28T23:35:09.459Z,7.43
2023-12-28T23:45:11.777Z,4.10
2023-12-28T23:55:15.357Z,5.88
